createdAt,value
2022-08-25T00:00:22.448Z,79.01
2022-08-25T00:02:55.322Z,78.84
2022-08-25T00:05:32.406Z,79.33
2022-08-25T00:08:06.165Z,79.06
2022-08-25T00:10:38.335Z,78.97
2022-08-25T00:13:08.077Z,79.40
2022-08-25T00:15:36.590Z,79.27
2022-08-25T00:18:05.709Z,78.98
2022-08-25T00:20:48.904Z,79.09
2022-08-25T00:23:17.755Z,78.88
2022-08-25T00:25:45.692Z,79.33
2022-08-25T00:28:15.224Z,79.43
2022-08-25T00:30:44.421Z,78.90
2022-08-25T00:33:12.344Z,78.47
2022-08-25T00:35:42.469Z,78.59
2022-08-25T00:38:11.284Z,79.33
2022-08-25T00:40:41.676Z,77.93
2022-08-25T00:43:09.850Z,78.12
2022-08-25T00:45:38.555Z,78.22
2022-08-25T00:48:07.075Z,77.76
2022-08-25T00:50:35.384Z,77.99
2022-08-25T00:53:05.778Z,78.30
2022-08-25T00:55:40.983Z,78.30
2022-08-25T00:58:16.124Z,78.24
2022-08-25T01:00:52.249Z,78.92
2022-08-25T01:03:23.808Z,78.49
2022-08-25T01:05:55.499Z,78.05
2022-08-25T01:08:29.347Z,78.94
2022-08-25T01:11:06.624Z,78.87
2022-08-25T01:13:47.607Z,78.69
2022-08-25T01:16:17.333Z,78.34
2022-08-25T01:18:52.579Z,78.32
2022-08-25T01:21:23.686Z,78.54
2022-08-25T01:23:53.005Z,78.12
2022-08-25T01:26:30.525Z,77.85
2022-08-25T01:29:22.023Z,77.82
2022-08-25T01:31:57.797Z,77.63
2022-08-25T01:34:30.949Z,77.92
2022-08-25T01:37:00.160Z,78.06
2022-08-25T01:39:31.249Z,78.48
2022-08-25T01:42:09.741Z,78.31
2022-08-25T01:44:43.611Z,78.87
2022-08-25T01:47:13.812Z,78.30
2022-08-25T01:49:41.898Z,78.26
2022-08-25T01:52:25.451Z,79.08
2022-08-25T01:54:53.411Z,78.72
2022-08-25T01:57:22.475Z,78.62
2022-08-25T01:59:50.576Z,78.92
2022-08-25T02:02:18.614Z,78.62
2022-08-25T02:04:46.432Z,78.59
2022-08-25T02:07:14.104Z,78.62
2022-08-25T02:09:42.015Z,78.66
2022-08-25T02:12:20.342Z,78.36
2022-08-25T02:14:48.940Z,78.55
2022-08-25T02:17:17.569Z,78.57
2022-08-25T02:19:45.345Z,79.01
2022-08-25T02:22:13.360Z,79.24
2022-08-25T02:24:44.390Z,79.16
2022-08-25T02:27:12.205Z,79.15
2022-08-25T02:29:40.456Z,79.20
2022-08-25T02:32:09.134Z,79.00
2022-08-25T02:34:41.422Z,78.44
2022-08-25T02:37:09.561Z,78.42
2022-08-25T02:39:37.527Z,78.37
2022-08-25T02:42:07.084Z,78.41
2022-08-25T02:44:35.688Z,79.04
2022-08-25T02:47:04.002Z,79.51
2022-08-25T02:49:33.212Z,79.55
2022-08-25T02:52:01.755Z,79.57
2022-08-25T02:54:30.023Z,80.17
2022-08-25T02:56:58.086Z,79.65
2022-08-25T02:59:28.475Z,79.66
2022-08-25T03:01:56.544Z,79.40
2022-08-25T03:04:24.876Z,79.33
2022-08-25T03:06:52.732Z,79.78
2022-08-25T03:09:21.133Z,79.53
2022-08-25T03:11:49.238Z,79.59
2022-08-25T03:14:17.602Z,79.46
2022-08-25T03:16:46.696Z,80.04
2022-08-25T03:19:15.393Z,79.94
2022-08-25T03:21:45.941Z,79.40
2022-08-25T03:24:14.500Z,79.55
2022-08-25T03:26:54.445Z,79.83
2022-08-25T03:29:33.915Z,80.29
2022-08-25T03:32:02.202Z,79.37
2022-08-25T03:34:30.817Z,80.13
2022-08-25T03:36:59.519Z,79.77
2022-08-25T03:39:27.924Z,79.69
2022-08-25T03:41:55.910Z,79.99
2022-08-25T03:44:23.865Z,79.98
2022-08-25T03:46:52.924Z,79.87
2022-08-25T03:49:23.961Z,80.14
2022-08-25T03:51:53.815Z,79.69
2022-08-25T03:54:26.059Z,80.12
2022-08-25T03:56:55.030Z,80.28
2022-08-25T03:59:22.707Z,79.56
2022-08-25T04:01:54.724Z,79.31
2022-08-25T04:04:23.836Z,79.62
2022-08-25T04:06:51.912Z,79.49
2022-08-25T04:09:19.913Z,79.93
2022-08-25T04:11:47.744Z,79.43
2022-08-25T04:14:23.283Z,79.48
2022-08-25T04:16:51.409Z,79.67
2022-08-25T04:19:20.626Z,79.27
2022-08-25T04:21:48.694Z,79.75
2022-08-25T04:24:16.823Z,79.53
2022-08-25T04:26:49.821Z,79.93
2022-08-25T04:29:23.733Z,79.70
2022-08-25T04:31:53.050Z,79.57
2022-08-25T04:34:29.664Z,79.73
2022-08-25T04:37:05.539Z,79.53
2022-08-25T04:39:34.114Z,79.19
2022-08-25T04:42:02.387Z,78.91
2022-08-25T04:44:31.958Z,78.84
2022-08-25T04:47:01.331Z,78.80
2022-08-25T04:49:29.630Z,78.53
2022-08-25T04:51:57.927Z,79.12
2022-08-25T04:54:25.836Z,78.83
2022-08-25T04:56:58.271Z,78.90
2022-08-25T04:59:30.021Z,79.35
2022-08-25T05:02:02.659Z,79.06
2022-08-25T05:04:32.827Z,79.27
2022-08-25T05:07:01.215Z,79.00
2022-08-25T05:09:29.266Z,78.95
2022-08-25T05:12:02.910Z,79.01
2022-08-25T05:14:32.627Z,78.75
2022-08-25T05:17:01.517Z,78.71
2022-08-25T05:19:29.269Z,78.61
2022-08-25T05:21:58.017Z,79.02
2022-08-25T05:24:26.820Z,78.95
2022-08-25T05:26:54.482Z,78.34
2022-08-25T05:29:22.394Z,78.35
2022-08-25T05:31:51.013Z,78.06
2022-08-25T05:34:20.324Z,77.96
2022-08-25T05:36:48.973Z,78.11
2022-08-25T05:39:16.775Z,77.85
2022-08-25T05:41:44.594Z,77.77
2022-08-25T05:44:12.971Z,78.24
2022-08-25T05:46:40.752Z,77.95
2022-08-25T05:49:08.523Z,77.76
2022-08-25T05:51:36.263Z,77.91
2022-08-25T05:54:04.391Z,78.43
2022-08-25T05:56:32.211Z,77.98
2022-08-25T05:58:59.968Z,78.37
2022-08-25T06:01:48.362Z,78.30
2022-08-25T06:04:18.040Z,78.09
2022-08-25T06:06:45.891Z,78.10
2022-08-25T06:09:15.337Z,78.02
2022-08-25T06:11:43.105Z,78.15
2022-08-25T06:14:11.650Z,77.90
2022-08-25T06:16:40.442Z,77.76
2022-08-25T06:19:10.518Z,77.72
2022-08-25T06:21:41.522Z,77.57
2022-08-25T06:24:15.151Z,77.87
2022-08-25T06:26:44.333Z,77.52
2022-08-25T06:29:16.327Z,77.48
2022-08-25T06:31:46.680Z,77.36
2022-08-25T06:34:14.475Z,77.47
2022-08-25T06:36:42.263Z,77.33
2022-08-25T06:39:11.339Z,77.30
2022-08-25T06:41:39.313Z,77.42
2022-08-25T06:44:07.152Z,77.31
2022-08-25T06:46:36.548Z,77.19
2022-08-25T06:49:06.890Z,77.21
2022-08-25T06:51:36.285Z,77.21
2022-08-25T06:54:06.696Z,77.03
2022-08-25T06:56:34.857Z,76.84
2022-08-25T06:59:05.366Z,76.47
2022-08-25T07:01:34.265Z,76.57
2022-08-25T07:04:10.048Z,76.53
2022-08-25T07:06:40.455Z,76.82
2022-08-25T07:09:13.247Z,76.91
2022-08-25T07:11:42.884Z,76.86
2022-08-25T07:14:13.805Z,76.82
2022-08-25T07:16:47.198Z,76.83
2022-08-25T07:19:21.005Z,76.95
2022-08-25T07:21:52.969Z,76.86
2022-08-25T07:24:21.788Z,76.95
2022-08-25T07:26:49.913Z,76.61
2022-08-25T07:29:31.952Z,76.58
2022-08-25T07:32:02.588Z,76.24
2022-08-25T07:34:52.474Z,75.72
2022-08-25T07:40:16.156Z,75.47
2022-08-25T07:42:46.158Z,75.63
2022-08-25T07:45:17.396Z,75.36
2022-08-25T07:47:51.568Z,75.43
2022-08-25T07:50:20.951Z,75.19
2022-08-25T07:52:52.215Z,74.99
2022-08-25T07:55:30.536Z,74.76
2022-08-25T07:57:59.933Z,74.76
2022-08-25T08:00:30.202Z,74.61
2022-08-25T08:02:59.684Z,74.87
2022-08-25T08:05:28.890Z,73.68
2022-08-25T08:07:56.976Z,73.96
2022-08-25T08:10:47.791Z,74.21
2022-08-25T08:13:18.027Z,73.78
2022-08-25T08:15:47.549Z,73.67
2022-08-25T08:18:16.144Z,73.64
2022-08-25T08:20:49.255Z,73.10
2022-08-25T08:23:17.982Z,73.22
2022-08-25T08:25:45.842Z,71.95
2022-08-25T08:28:13.597Z,72.66
2022-08-25T08:30:53.545Z,72.21
2022-08-25T08:33:24.248Z,70.44
2022-08-25T08:36:07.872Z,70.77
2022-08-25T08:38:40.526Z,71.33
2022-08-25T08:42:13.168Z,69.32
2022-08-25T08:44:47.111Z,69.94
2022-08-25T08:47:39.167Z,69.79
2022-08-25T08:50:32.911Z,68.29
2022-08-25T08:53:16.430Z,67.17
2022-08-25T08:55:52.815Z,68.48
2022-08-25T08:58:46.032Z,66.51
2022-08-25T09:01:31.317Z,65.39
2022-08-25T09:04:29.210Z,67.18
2022-08-25T09:07:01.195Z,69.00
2022-08-25T09:09:35.460Z,68.60
2022-08-25T09:12:31.949Z,66.93
2022-08-25T09:15:57.522Z,63.93
2022-08-25T09:18:51.063Z,65.51
2022-08-25T09:21:37.239Z,65.66
2022-08-25T09:24:42.883Z,65.68
2022-08-25T09:27:58.464Z,63.54
2022-08-25T09:30:37.934Z,66.45
2022-08-25T09:33:07.190Z,66.02
2022-08-25T09:35:40.853Z,63.95
2022-08-25T09:38:12.344Z,60.79
2022-08-25T09:40:48.427Z,63.74
2022-08-25T09:43:43.479Z,61.07
2022-08-25T09:46:27.970Z,60.88
2022-08-25T09:49:11.033Z,63.87
2022-08-25T09:51:43.007Z,63.90
2022-08-25T09:54:13.839Z,63.85
2022-08-25T09:57:01.988Z,62.24
2022-08-25T09:59:35.648Z,64.29
2022-08-25T10:02:23.706Z,64.18
2022-08-25T10:04:52.364Z,62.53
2022-08-25T10:07:52.018Z,60.76
2022-08-25T10:10:38.282Z,58.67
2022-08-25T10:13:40.106Z,57.86
2022-08-25T10:16:24.867Z,57.74
2022-08-25T10:19:05.604Z,56.82
2022-08-25T10:21:36.438Z,59.45
2022-08-25T10:24:06.677Z,60.97
2022-08-25T10:26:55.126Z,59.21
2022-08-25T10:29:53.275Z,58.92
2022-08-25T10:32:57.644Z,58.88
2022-08-25T10:35:45.584Z,60.74
2022-08-25T10:38:42.983Z,57.88
2022-08-25T10:42:06.737Z,54.57
2022-08-25T10:45:01.008Z,54.92
2022-08-25T10:48:00.463Z,56.23
2022-08-25T10:50:45.523Z,54.51
2022-08-25T10:53:21.553Z,56.40
2022-08-25T10:56:12.769Z,57.04
2022-08-25T10:59:13.061Z,56.13
2022-08-25T11:02:03.394Z,54.95
2022-08-25T11:04:55.906Z,53.75
2022-08-25T11:07:38.181Z,56.13
2022-08-25T11:10:35.772Z,52.56
2022-08-25T11:13:18.261Z,55.22
2022-08-25T11:16:16.495Z,55.45
2022-08-25T11:19:07.499Z,56.65
2022-08-25T11:21:54.118Z,55.47
2022-08-25T11:24:30.498Z,54.70
2022-08-25T11:26:59.933Z,56.91
2022-08-25T11:29:35.401Z,57.02
2022-08-25T11:32:05.262Z,57.66
2022-08-25T11:34:42.995Z,56.46
2022-08-25T11:37:28.072Z,54.81
2022-08-25T11:40:40.541Z,54.84
2022-08-25T11:43:47.223Z,54.20
2022-08-25T11:46:50.660Z,54.00
2022-08-25T11:49:54.587Z,52.68
2022-08-25T11:52:34.726Z,55.65
2022-08-25T11:55:13.589Z,55.33
2022-08-25T11:57:46.790Z,54.55
2022-08-25T12:00:42.682Z,56.48
2022-08-25T12:03:31.983Z,54.90
2022-08-25T12:06:28.398Z,52.06
2022-08-25T12:09:03.546Z,53.46
2022-08-25T12:11:54.721Z,53.97
2022-08-25T12:14:22.419Z,55.37
2022-08-25T12:16:57.062Z,53.72
2022-08-25T12:19:56.758Z,54.33
2022-08-25T12:22:24.423Z,55.65
2022-08-25T12:25:21.804Z,51.69
2022-08-25T12:28:09.463Z,52.79
2022-08-25T12:31:00.363Z,52.17
2022-08-25T12:33:49.562Z,53.00
2022-08-25T12:36:33.873Z,52.85
2022-08-25T12:39:29.051Z,52.49
2022-08-25T12:42:04.642Z,54.94
2022-08-25T12:44:48.048Z,53.14
2022-08-25T12:47:19.963Z,51.98
2022-08-25T12:49:51.977Z,54.58
2022-08-25T12:52:28.085Z,55.10
2022-08-25T12:55:03.660Z,53.24
2022-08-25T12:57:57.946Z,51.11
2022-08-25T13:00:51.199Z,53.24
2022-08-25T13:04:00.583Z,53.03
2022-08-25T13:07:01.979Z,52.77
2022-08-25T13:09:50.911Z,51.56
2022-08-25T13:12:37.932Z,53.50
2022-08-25T13:15:05.941Z,54.18
2022-08-25T13:17:35.955Z,53.33
2022-08-25T13:20:15.249Z,50.54
2022-08-25T13:22:55.361Z,51.31
2022-08-25T13:25:32.309Z,52.04
2022-08-25T13:28:05.257Z,47.44
2022-08-25T13:30:37.371Z,50.51
2022-08-25T13:33:23.933Z,48.79
2022-08-25T13:36:16.473Z,50.35
2022-08-25T13:38:48.244Z,50.21
2022-08-25T13:41:28.764Z,49.43
2022-08-25T13:43:59.773Z,50.18
2022-08-25T13:46:29.159Z,52.30
2022-08-25T13:49:08.670Z,51.68
2022-08-25T13:51:39.743Z,51.47
2022-08-25T13:54:24.792Z,50.75
2022-08-25T13:56:52.932Z,51.01
2022-08-25T13:59:25.929Z,51.31
2022-08-25T14:01:55.762Z,49.63
2022-08-25T14:04:50.731Z,51.50
2022-08-25T14:07:33.668Z,50.72
2022-08-25T14:10:30.955Z,49.33
2022-08-25T14:13:34.955Z,50.96
2022-08-25T14:16:22.982Z,52.16
2022-08-25T14:18:58.877Z,52.08
2022-08-25T14:21:32.670Z,52.49
2022-08-25T14:24:04.154Z,50.97
2022-08-25T14:26:31.730Z,48.79
2022-08-25T14:28:59.641Z,49.73
2022-08-25T14:31:36.261Z,49.19
2022-08-25T14:34:12.829Z,46.68
2022-08-25T14:36:41.243Z,49.78
2022-08-25T14:39:12.897Z,47.25
2022-08-25T14:41:47.540Z,48.95
2022-08-25T14:44:21.549Z,50.39
2022-08-25T14:46:57.693Z,46.24
2022-08-25T14:49:33.816Z,46.76
2022-08-25T14:52:16.492Z,45.20
2022-08-25T14:54:45.017Z,48.12
2022-08-25T14:57:14.406Z,48.84
2022-08-25T14:59:43.319Z,49.05
2022-08-25T15:02:19.927Z,48.91
2022-08-25T15:04:54.228Z,48.08
2022-08-25T15:07:40.559Z,48.08
2022-08-25T15:10:09.669Z,47.38
2022-08-25T15:12:47.724Z,47.70
2022-08-25T15:15:16.058Z,49.60
2022-08-25T15:17:46.723Z,49.84
2022-08-25T15:20:17.137Z,49.44
2022-08-25T15:22:45.615Z,49.67
2022-08-25T15:25:13.825Z,49.92
2022-08-25T15:27:41.644Z,50.56
2022-08-25T15:30:10.530Z,50.77
2022-08-25T15:32:41.251Z,51.19
2022-08-25T15:35:11.027Z,51.19
2022-08-25T15:37:42.970Z,51.29
2022-08-25T15:40:11.241Z,51.46
2022-08-25T15:42:42.799Z,50.82
2022-08-25T15:45:14.593Z,50.67
2022-08-25T15:47:42.576Z,51.98
2022-08-25T15:50:17.726Z,52.97
2022-08-25T15:52:47.559Z,52.37
2022-08-25T15:55:17.937Z,53.11
2022-08-25T15:57:49.714Z,54.57
2022-08-25T16:00:19.289Z,54.49
2022-08-25T16:02:49.900Z,54.97
2022-08-25T16:05:18.426Z,54.39
2022-08-25T16:07:51.501Z,53.97
2022-08-25T16:10:19.905Z,53.25
2022-08-25T16:12:48.017Z,54.12
2022-08-25T16:15:16.182Z,53.91
2022-08-25T16:17:46.964Z,54.11
2022-08-25T16:20:19.611Z,54.49
2022-08-25T16:22:48.111Z,55.29
2022-08-25T16:25:16.345Z,55.63
2022-08-25T16:27:45.581Z,56.12
2022-08-25T16:30:17.396Z,56.27
2022-08-25T16:32:46.685Z,56.56
2022-08-25T16:35:14.769Z,56.77
2022-08-25T16:37:42.674Z,56.90
2022-08-25T16:40:14.739Z,57.42
2022-08-25T16:42:42.897Z,57.65
2022-08-25T16:45:11.959Z,57.76
2022-08-25T16:47:39.714Z,58.84
2022-08-25T16:50:11.447Z,59.03
2022-08-25T16:52:59.426Z,58.90
2022-08-25T16:55:39.433Z,59.14
2022-08-25T16:58:13.437Z,59.38
2022-08-25T17:00:43.882Z,59.61
2022-08-25T17:03:13.159Z,59.72
2022-08-25T17:05:43.085Z,60.49
2022-08-25T17:08:30.742Z,60.41
2022-08-25T17:11:11.404Z,60.99
2022-08-25T17:13:45.707Z,60.97
2022-08-25T17:16:14.909Z,60.93
2022-08-25T17:18:44.837Z,61.00
2022-08-25T17:21:24.327Z,61.50
2022-08-25T17:23:55.852Z,61.63
2022-08-25T17:26:28.085Z,61.80
2022-08-25T17:28:59.427Z,62.58
2022-08-25T17:31:30.059Z,62.45
2022-08-25T17:33:58.791Z,62.30
2022-08-25T17:36:27.525Z,62.66
2022-08-25T17:38:57.027Z,63.24
2022-08-25T17:41:25.999Z,63.60
2022-08-25T17:43:53.772Z,63.44
2022-08-25T17:46:21.960Z,63.79
2022-08-25T17:48:49.942Z,64.01
2022-08-25T17:51:17.982Z,64.16
2022-08-25T17:53:46.939Z,64.55
2022-08-25T17:56:18.649Z,65.01
2022-08-25T17:58:47.372Z,64.85
2022-08-25T18:01:31.799Z,65.40
2022-08-25T18:03:59.739Z,65.24
2022-08-25T18:06:31.094Z,65.58
2022-08-25T18:09:01.560Z,66.07
2022-08-25T18:11:30.386Z,65.59
2022-08-25T18:13:58.662Z,66.24
2022-08-25T18:16:27.360Z,66.14
2022-08-25T18:18:55.936Z,66.48
2022-08-25T18:21:25.614Z,66.75
2022-08-25T18:23:59.177Z,66.32
2022-08-25T18:26:27.484Z,66.70
2022-08-25T18:28:55.877Z,67.23
2022-08-25T18:31:23.804Z,67.23
2022-08-25T18:33:52.265Z,67.55
2022-08-25T18:36:21.030Z,67.44
2022-08-25T18:39:08.978Z,67.67
2022-08-25T18:41:41.304Z,68.52
2022-08-25T18:44:11.004Z,67.83
2022-08-25T18:46:40.222Z,68.05
2022-08-25T18:49:09.076Z,67.97
2022-08-25T18:51:37.890Z,67.75
2022-08-25T18:54:06.543Z,68.43
2022-08-25T18:56:35.127Z,68.95
2022-08-25T18:59:04.375Z,68.81
2022-08-25T19:01:32.238Z,68.99
2022-08-25T19:04:00.512Z,69.24
2022-08-25T19:06:30.641Z,68.94
2022-08-25T19:09:00.083Z,69.87
2022-08-25T19:11:27.825Z,70.04
2022-08-25T19:13:57.658Z,72.10
2022-08-25T19:16:40.141Z,71.11
2022-08-25T19:19:13.298Z,70.40
2022-08-25T19:21:42.633Z,70.28
2022-08-25T19:24:13.083Z,70.28
2022-08-25T19:26:41.668Z,70.04
2022-08-25T19:29:14.713Z,70.12
2022-08-25T19:31:45.532Z,70.75
2022-08-25T19:34:24.233Z,71.78
2022-08-25T19:36:58.592Z,70.39
2022-08-25T19:39:26.527Z,70.07
2022-08-25T19:41:54.390Z,70.42
2022-08-25T19:44:23.482Z,69.91
2022-08-25T19:46:53.738Z,71.22
2022-08-25T19:49:27.535Z,71.23
2022-08-25T19:52:03.110Z,70.76
2022-08-25T19:54:44.306Z,71.10
2022-08-25T19:57:27.868Z,70.29
2022-08-25T19:59:56.534Z,70.41
2022-08-25T20:02:28.203Z,70.44
2022-08-25T20:05:00.128Z,70.18
2022-08-25T20:07:31.561Z,70.83
2022-08-25T20:10:01.562Z,71.13
2022-08-25T20:12:29.379Z,70.68
2022-08-25T20:14:57.817Z,70.85
2022-08-25T20:17:26.205Z,71.26
2022-08-25T20:19:59.673Z,71.01
2022-08-25T20:22:31.698Z,71.07
2022-08-25T20:25:19.907Z,71.19
2022-08-25T20:27:52.349Z,71.61
2022-08-25T20:30:29.602Z,72.72
2022-08-25T20:32:58.609Z,71.32
2022-08-25T20:35:28.472Z,71.58
2022-08-25T20:37:59.424Z,71.42
2022-08-25T20:40:30.129Z,71.23
2022-08-25T20:43:03.112Z,71.99
2022-08-25T20:45:31.594Z,71.35
2022-08-25T20:48:00.077Z,71.04
2022-08-25T20:50:28.091Z,71.66
2022-08-25T20:52:58.794Z,71.96
2022-08-25T20:55:27.865Z,71.45
2022-08-25T20:57:56.294Z,71.33
2022-08-25T21:00:24.858Z,71.50
2022-08-25T21:02:53.458Z,71.38
2022-08-25T21:05:21.533Z,71.19
2022-08-25T21:07:49.425Z,71.35
2022-08-25T21:10:18.041Z,71.05
2022-08-25T21:12:45.977Z,71.34
2022-08-25T21:15:18.005Z,71.47
2022-08-25T21:17:54.342Z,71.98
2022-08-25T21:20:24.187Z,70.92
2022-08-25T21:22:53.445Z,71.48
2022-08-25T21:25:21.877Z,71.43
2022-08-25T21:27:49.581Z,72.21
2022-08-25T21:30:18.239Z,71.96
2022-08-25T21:32:52.903Z,72.27
2022-08-25T21:35:23.956Z,71.77
2022-08-25T21:37:53.828Z,71.97
2022-08-25T21:40:23.194Z,72.20
2022-08-25T21:42:52.499Z,72.25
2022-08-25T21:45:21.864Z,72.24
2022-08-25T21:47:50.120Z,72.53
2022-08-25T21:50:20.262Z,72.27
2022-08-25T21:52:48.371Z,72.53
2022-08-25T21:55:23.204Z,72.47
2022-08-25T21:57:51.521Z,72.67
2022-08-25T22:00:21.232Z,72.88
2022-08-25T22:02:50.211Z,72.25
2022-08-25T22:05:18.245Z,72.53
2022-08-25T22:07:45.970Z,72.91
2022-08-25T22:10:17.990Z,73.21
2022-08-25T22:12:48.330Z,72.77
2022-08-25T22:15:17.926Z,72.93
2022-08-25T22:17:48.127Z,73.28
2022-08-25T22:20:18.050Z,73.22
2022-08-25T22:22:46.204Z,73.47
2022-08-25T22:25:14.113Z,73.16
2022-08-25T22:27:42.398Z,72.87
2022-08-25T22:30:11.413Z,73.02
2022-08-25T22:32:39.422Z,72.90
2022-08-25T22:35:08.142Z,72.81
2022-08-25T22:37:37.428Z,72.64
2022-08-25T22:40:06.057Z,72.58
2022-08-25T22:42:33.859Z,72.52
2022-08-25T22:45:01.621Z,72.70
2022-08-25T22:47:29.459Z,72.40
2022-08-25T22:49:59.170Z,72.70
2022-08-25T22:52:31.963Z,72.51
2022-08-25T22:55:02.871Z,72.67
2022-08-25T22:57:30.753Z,72.85
2022-08-25T22:59:59.354Z,72.80
2022-08-25T23:02:30.256Z,72.62
2022-08-25T23:04:58.213Z,72.52
2022-08-25T23:07:29.509Z,73.00
2022-08-25T23:10:02.567Z,72.96
2022-08-25T23:12:30.750Z,73.56
2022-08-25T23:14:58.479Z,72.72
2022-08-25T23:17:29.229Z,72.66
2022-08-25T23:19:56.963Z,72.89
2022-08-25T23:22:24.665Z,72.83
2022-08-25T23:24:54.873Z,72.94
2022-08-25T23:27:22.679Z,73.01
2022-08-25T23:29:51.277Z,73.01
2022-08-25T23:32:19.063Z,73.06
2022-08-25T23:34:47.402Z,73.05
2022-08-25T23:37:16.299Z,73.06
2022-08-25T23:39:49.391Z,72.95
2022-08-25T23:42:19.800Z,72.91
2022-08-25T23:44:49.689Z,72.96
2022-08-25T23:47:18.796Z,72.94
2022-08-25T23:49:48.256Z,72.99
2022-08-25T23:52:17.525Z,72.74
2022-08-25T23:54:47.837Z,73.00
2022-08-25T23:57:15.786Z,72.81
2022-08-25T23:59:43.561Z,72.97
